Nearby METAR Reports

 

KBJC - Broomfield/Jeffc, Colorado, USA
Distance from station: SSW 3mi, 5km
Updated: Sun, 25-Jun-2017 9:34am MDT
Overcast
Overcast
 Wind from N
Wind: N 9 mph , 15 km/h
Temperature: 59°F , 15°C
Dew Point: 50°F , 10°C
Humidity: 72%
Barometer: 30.40 inHg , 1029.5 hPa
Clouds: Overcast
Visibility: 10 miles , 16 km
Cloud details: Overcast 1500 ft
2017/06/25 15:34 KBJC 251534Z AUTO 01008KT 10SM OVC015 15/10 A3040 RMK AO2
KEIK - Erie Muni, Colorado, USA
Distance from station: N 5mi, 9km
Updated: Sun, 25-Jun-2017 9:34am MDT
Overcast
Overcast
 Wind from N
Wind: N 6 mph , 9 km/h
Temperature: 59°F , 15°C
Dew Point: 50°F , 10°C
Humidity: 72%
Barometer: 30.38 inHg , 1028.8 hPa
Clouds: Overcast
Visibility: 10 miles , 16 km
Cloud details: Overcast 1800 ft
2017/06/25 15:34 KEIK 251534Z AUTO 01005KT 10SM OVC018 15/10 A3038 RMK AO2 T01530103
 
KBDU - Boulder Muni, Colorado, USA
Distance from station: NW 11mi, 17km
Updated: Sun, 25-Jun-2017 9:36am MDT
Overcast
Overcast
 Wind from NE
Wind: NE 7 mph , 11 km/h
Temperature: 61°F , 16°C
Dew Point: 52°F , 11°C
Humidity: 72%
Barometer: 30.38 inHg , 1028.8 hPa
Clouds: Overcast
Visibility: 10 miles , 16 km
Cloud details: Overcast 1900 ft
2017/06/25 15:36 KBDU 251536Z AUTO 04006KT 10SM OVC019 16/11 A3038 RMK AO2
KLMO - Longmont/Vbrand, Colorado, USA
Distance from station: NNW 16mi, 27km
Updated: Sun, 25-Jun-2017 9:34am MDT
Overcast
Overcast
 Wind from E
Wind: E 7 mph , 11 km/h
Temperature: 64°F , 18°C
Dew Point: 52°F , 11°C
Humidity: 64%
Barometer: 30.39 inHg , 1029.1 hPa
Clouds: Overcast
Visibility: 7 miles , 11 km
Cloud details: Overcast 2100 ft
2017/06/25 15:34 KLMO 251534Z AUTO 09006KT 7SM OVC021 18/11 A3039 RMK AO2 T01760106
 
KBKF - Buckley Angb/Den, Colorado, USA
Distance from station: SE 23mi, 37km
Updated: Sun, 25-Jun-2017 8:58am MDT
Few Clouds
Few Clouds
 Wind from NW
Wind: NW 12 mph , 19 km/h
Temperature: 59°F , 15°C
Dew Point: 50°F , 10°C
Humidity: 72%
Barometer: 30.39 inHg , 1029.1 hPa
Clouds: Few Clouds
Visibility: 10 miles , 16 km
Cloud details: Few Clouds 2000 ft
Few Clouds 9000 ft
2017/06/25 14:58 KBKF 251458Z 32010KT 10SM FEW020 FEW090 15/10 A3039 RMK AO2A SLP234 T01540096 51010
KDEN - Denver (dia), Colorado, USA
Distance from station: ESE 23mi, 37km
Updated: Sun, 25-Jun-2017 9:08am MDT
Mostly cloudy
Mostly cloudy
 Wind from NNW
Wind: NNW 9 mph , 15 km/h
Temperature: 61°F , 16°C
Dew Point: 48°F , 9°C
Humidity: 63%
Barometer: 30.38 inHg , 1028.8 hPa
Clouds: Mostly cloudy
Visibility: 10 miles , 16 km
Cloud details: Mostly cloudy 1400 ft
2017/06/25 15:08 KDEN 251508Z 34008KT 10SM BKN014 16/09 A3038 RMK AO2 T01560094
 
KAPA - Denver/Arapahoe, Colorado, USA
Distance from station: SSE 28mi, 46km
Updated: Sun, 25-Jun-2017 8:53am MDT
Few Clouds
Few Clouds
 Wind from N
Wind: N 9 mph , 15 km/h
Temperature: 61°F , 16°C
Dew Point: 50°F , 10°C
Humidity: 68%
Barometer: 30.39 inHg , 1029.1 hPa
Clouds: Few Clouds
Visibility: 10 miles , 16 km
Cloud details: Few Clouds 3000 ft
Few Clouds 10000 ft
2017/06/25 14:53 KAPA 251453Z 01008KT 10SM FEW030 FEW100 16/10 A3039 RMK AO2 SLP241 T01560100 51012
KFTG - Denver F. Range, Colorado, USA
Distance from station: ESE 30mi, 48km
Updated: Sun, 25-Jun-2017 9:36am MDT
Clear
Clear
 Wind from NNW
Wind: NNW 7 mph , 11 km/h, Gust: 17 mph , 28 km/h
Temperature: 63°F , 17°C
Dew Point: 52°F , 11°C
Humidity: 68%
Barometer: 30.38 inHg , 1028.8 hPa
Clouds: Clear
Visibility: 10 miles , 16 km
2017/06/25 15:36 KFTG 251536Z AUTO 34006G15KT 10SM CLR 17/11 A3038 RMK AO2
 
KFNL - Ft Collins/Lovel, Colorado, USA
Distance from station: N 35mi, 57km
Updated: Sun, 25-Jun-2017 8:56am MDT
Overcast
Overcast
 Wind from NE
Wind: NE 12 mph , 19 km/h
Temperature: 61°F , 16°C
Dew Point: 48°F , 9°C
Humidity: 63%
Barometer: 30.38 inHg , 1028.8 hPa
Clouds: Overcast
Visibility: 10 miles , 16 km
Cloud details: Overcast 2600 ft
2017/06/25 14:56 KFNL 251456Z AUTO 05010KT 10SM OVC026 16/09 A3038 RMK AO2 SLP242 T01610089 51006
K0CO - Berthoud Pass, Colorado, USA
Distance from station: WSW 38mi, 61km
Updated: Sun, 25-Jun-2017 9:35am MDT
Clear
Clear
 Wind from NNW
Wind: NNW 6 mph , 9 km/h
Temperature: 43°F , 6°C
Wind Chill: 39°F , 4°C
Dew Point: 30°F , -1°C
Humidity: 61%
Barometer: 30.72 inHg , 1040.3 hPa
Clouds: Clear
Visibility: 10 miles , 16 km
2017/06/25 15:35 K0CO 251535Z AUTO 34005KT 10SM CLR 06/M01 A3072 RMK AO2
 
KGXY - Greeley/Weld, Colorado, USA
Distance from station: NE 41mi, 66km
Updated: Sun, 25-Jun-2017 8:22am MDT
NOT Current
Mostly cloudy
Mostly cloudy
 Wind from ENE
Wind: ENE 13 mph , 20 km/h
Temperature: 57°F , 14°C
Dew Point: 48°F , 9°C
Humidity: 72%
Barometer: 30.38 inHg , 1028.8 hPa
Clouds: Mostly cloudy
Visibility: 10 miles , 16 km
Cloud details: Mostly cloudy 2300 ft
2017/06/25 14:22 KGXY 251422Z AUTO 06011KT 10SM BKN023 14/09 A3038 RMK AO2